Warlingham, United Kingdom
Current Conditions -  °F | °C
As of 3:50 PM on Saturday 25 Oct 2014 (Local Time) from EGKB Reporting Station
Few Clouds Few Clouds  
Wind Chill: 57°   Ceiling: Unl
Heat Index: 57°   Visibility: 6mi
Dew Point: 43°   Wind: 9mph
Humidity: 59%   Direction: 210°SSW
Pressure: 30.09"   Gusts: NA
Location:  51.32°N, 0.06°W
Report Text: EGKB 251450Z 21008KT 180V250 9999 FEW035 14/06 Q1019
Loading
Personal Weather Stations






























Interactive Weather Map New forecast layout! Learn more

10-Day Weather Forecast

Advertisements
Track Severe Weather on mobile